• Join FlightAware (Why Join?)
  • Login
  • US Flag 
Trick or treat! (Boo!!) 
12:07AM EDT


 

Airport Tracker/Info


-or-


 

Live Flight TrackerFlight Track Log ✈ N125GH ✈ 19-Sep-2013 ✈ KHOU - KSAF

Flight Track Log - Related Links

Times and Time Zones

All times are in EDT time to prevent confusion due to time zone crossing. See the N125GH flight status page for this flight to view local times or setup timezone preferences in your user account.

Time Position Orientation Groundspeed Altitude Reporting Facility
EDT Latitude Longitude Course Direction KTS MPH feet Rate Location/Type
02:29PM 29.6400 -95.2694 31° Northeast 149 171 800  Level Houston Center
02:30PM 29.6694 -95.2489 31° Northeast 233 268 2,500 2,400 Climbing Houston Center
02:31PM 29.7403 -95.2428 North 276 318 5,000 2,040 Climbing Houston Center
02:31PM 29.7517 -95.2453 349° North 261 300 5,000 540 Level Houston Center
02:32PM 29.8150 -95.2794 335° Northwest 274 315 5,600 720 Climbing Houston Center
02:32PM 29.8214 -95.2831 334° Northwest 275 316 5,800 2,640 Climbing Houston Center
02:33PM 29.8578 -95.3536 301° West 278 320 8,300 2,460 Climbing Houston Center
02:33PM 29.8628 -95.3592 316° Northwest 282 325 8,400 2,520 Climbing Houston Center
02:34PM 29.9086 -95.4294 307° West 304 350 10,900 2,460 Climbing Houston Center
02:34PM 29.9114 -95.4339 306° West 291 335 11,000 2,640 Climbing Houston Center
02:35PM 29.9631 -95.5194 305° West 355 409 13,600 3,060 Climbing Houston Center
02:35PM 29.9772 -95.5414 307° West 341 392 14,200 1,800 Climbing Houston Center
02:36PM 30.0372 -95.6442 304° West 382 440 16,000 840 Climbing Houston Center
02:37PM 30.1050 -95.7450 308° West 397 457 16,000 240 Level Houston Center
02:38PM 30.1419 -95.8639 290° West 396 456 16,500 1,200 Climbing Houston Center
02:39PM 30.1672 -95.9881 283° West 399 459 18,500 1,200 Climbing Houston Center
02:40PM 30.1806 -96.1253 276° West 394 453 19,000 240 Climbing Houston Center
02:41PM 30.1961 -96.2550 278° West 403 464 19,000 480 Level Houston Center
02:42PM 30.2144 -96.4053 278° West 402 463 20,000 720 Climbing Houston Center
02:43PM 30.2292 -96.5386 277° West 411 473 20,600 960 Climbing Houston Center
02:44PM 30.2453 -96.6728 278° West 414 476 22,100 1,560 Climbing Houston Center
02:45PM 30.2625 -96.8047 279° West 412 474 23,900 1,740 Climbing Houston Center
02:46PM 30.2797 -96.9436 278° West 422 486 25,700 1,740 Climbing Houston Center
02:47PM 30.2967 -97.0858 278° West 434 499 27,500 1,740 Climbing Houston Center
02:48PM 30.3156 -97.2339 278° West 448 516 29,400 1,740 Climbing Houston Center
02:49PM 30.3653 -97.3764 292° West 463 533 31,200 1,860 Climbing Houston Center
02:50PM 30.4206 -97.5425 291° West 466 536 33,300 1,980 Climbing Houston Center
02:51PM 30.4619 -97.6864 288° West 465 535 35,300 1,980 Climbing Houston Center
02:52PM 30.4969 -97.8256 286° West 446 513 37,400 1,980 Climbing Houston Center
02:54PM 30.5267 -97.9617 284° West 432 497 39,500 1,740 Climbing Houston Center
02:55PM 30.5578 -98.0958 285° West 427 491 41,000 1,200 Climbing Houston Center
02:56PM 30.5864 -98.2297 284° West 425 489 42,100 900 Climbing Houston Center
02:57PM 30.6164 -98.3656 284° West 430 495 42,900 420 Climbing Houston Center
02:58PM 30.6464 -98.5025 284° West 434 499 43,000 360 Climbing Houston Center
02:59PM 30.6833 -98.6650 285° West 441 507 43,700 600 Climbing Houston Center
03:00PM 30.7133 -98.8053 284° West 442 509 44,300 540 Climbing Houston Center
03:01PM 30.7428 -98.9436 284° West 438 504 44,900 540 Climbing Houston Center
03:02PM 30.7725 -99.0794 284° West 432 497 45,500 480 Climbing Houston Center
03:03PM 30.8017 -99.2139 284° West 429 494 46,000 480 Climbing Houston Center
03:04PM 30.8303 -99.3486 284° West 431 496 46,600 480 Climbing Houston Center
03:05PM 30.8600 -99.4825 285° West 430 495 47,000 180 Climbing Houston Center
03:06PM 30.8972 -99.6444 285° West 438 504 47,000  Level Houston Center
03:07PM 30.9597 -99.7633 302° West 448 516 47,000  Level Houston Center
03:08PM 31.0322 -99.8764 307° West 446 513 47,000  Level Houston Center
03:09PM 31.1019 -99.9911 305° West 440 506 47,000  Level Houston Center
03:10PM 31.1694 -100.0978 307° West 429 494 47,000  Level Houston Center
03:11PM 31.2475 -100.2286 305° West 415 478 47,000  Level Houston Center
03:12PM 31.3100 -100.3319 305° West 404 465 47,000  Level Houston Center
03:13PM 31.3644 -100.4481 299° West 413 475 47,000  Level Houston Center
03:14PM 31.4389 -100.5458 312° West 419 482 47,000  Level Houston Center
03:15PM 31.5172 -100.6453 313° West 416 479 47,000  Level Houston Center
03:16PM 31.6122 -100.7631 313° West 420 483 47,000  Level Houston Center
03:18PM 31.7103 -100.8783 315° West 414 476 47,000  Level Fort Worth Center
03:19PM 31.7911 -100.9792 313° West 414 476 47,000  Level Fort Worth Center
03:20PM 31.8697 -101.0778 313° West 414 476 47,000  Level Fort Worth Center
03:21PM 31.9522 -101.1814 313° West 414 476 47,000  Level Fort Worth Center
03:22PM 32.0325 -101.2828 313° West 419 482 47,000  Level Fort Worth Center
03:23PM 32.1150 -101.3867 313° West 424 488 47,000  Level Fort Worth Center
03:24PM 32.1828 -101.4831 310° West 429 494 47,000  Level Fort Worth Center
03:25PM 32.2672 -101.5850 314° West 424 488 47,000  Level Fort Worth Center
03:26PM 32.3492 -101.6897 313° West 424 488 47,000  Level Fort Worth Center
03:27PM 32.4314 -101.7919 314° West 424 488 47,000  Level Fort Worth Center
03:28PM 32.5133 -101.8944 313° West 424 488 47,000  Level Fort Worth Center
03:29PM 32.6031 -102.0100 313° West 424 488 47,000  Level Fort Worth Center
03:30PM 32.6847 -102.1103 314° West 424 488 47,000  Level Fort Worth Center
03:31PM 32.7664 -102.2158 313° West 430 495 47,000  Level Fort Worth Center
03:32PM 32.8478 -102.3217 312° West 430 495 47,000  Level Fort Worth Center
03:33PM 32.9253 -102.4247 312° West 430 495 47,000  Level Fort Worth Center
03:34PM 33.0003 -102.5306 310° West 417 480 47,000  Level Fort Worth Center
03:35PM 33.0836 -102.6319 314° West 424 488 47,000  Level Fort Worth Center
03:36PM 33.1608 -102.7358 312° West 424 488 47,000  Level Fort Worth Center
03:37PM 33.2375 -102.8422 311° West 424 488 47,000  Level Fort Worth Center
03:37PM 33.2967 -102.9128 315° West 421 484 47,000  Level Albuquerque Center
03:38PM 33.3747 -103.0181 312° West 422 486 47,000  Level Albuquerque Center
03:39PM 33.4683 -103.1411 312° West 420 483 47,000  Level Albuquerque Center
03:41PM 33.5461 -103.2472 311° West 423 487 47,000  Level Albuquerque Center
03:42PM 33.6244 -103.3536 312° West 426 490 47,000  Level Albuquerque Center
03:43PM 33.7014 -103.4581 312° West 423 487 47,000  Level Albuquerque Center
03:44PM 33.7833 -103.5614 314° West 416 479 47,000  Level Albuquerque Center
03:45PM 33.8697 -103.6781 312° West 420 483 47,000  Level Albuquerque Center
03:46PM 33.9539 -103.7914 312° West 423 487 47,000  Level Albuquerque Center
03:47PM 34.0314 -103.8989 311° West 419 482 47,000 -480 Level Albuquerque Center
03:48PM 34.1094 -104.0014 313° West 414 476 46,100 -1,080 Descending Albuquerque Center
03:49PM 34.1864 -104.1061 312° West 411 473 44,800 -1,320 Descending Albuquerque Center
03:50PM 34.2653 -104.2131 312° West 419 482 43,400 -1,320 Descending Albuquerque Center
03:51PM 34.3481 -104.3264 312° West 435 501 42,100 -1,320 Descending Albuquerque Center
03:52PM 34.4294 -104.4378 312° West 437 503 40,800 -1,320 Descending Albuquerque Center
03:53PM 34.5139 -104.5519 312° West 445 512 39,400 -1,260 Descending Albuquerque Center
03:54PM 34.6114 -104.6864 311° West 448 516 38,200 -720 Descending Albuquerque Center
03:55PM 34.6947 -104.8019 311° West 449 517 38,000 -420 Descending Albuquerque Center
03:56PM 34.7814 -104.9186 312° West 455 524 37,400 -840 Descending Albuquerque Center
03:57PM 34.8650 -105.0344 311° West 452 520 36,400 -720 Descending Albuquerque Center
03:58PM 34.9500 -105.1517 312° West 454 522 35,900 -1,320 Descending Albuquerque Center
03:59PM 35.0236 -105.2703 307° West 439 505 33,700 -2,280 Descending Albuquerque Center
04:00PM 35.0539 -105.4122 285° West 429 494 31,200 -2,760 Descending Albuquerque Center
04:01PM 35.0864 -105.5764 284° West 435 501 28,200 -2,760 Descending Albuquerque Center
04:02PM 35.1339 -105.7078 294° West 423 487 25,700 -2,520 Descending Albuquerque Center
04:03PM 35.2172 -105.7897 321° Northwest 391 450 23,000 -2,760 Descending Albuquerque Center
04:04PM 35.3064 -105.8564 329° Northwest 380 437 20,000 -3,000 Descending Albuquerque Center
04:05PM 35.3992 -105.9242 329° Northwest 365 420 16,900 -2,880 Descending Albuquerque Center
04:06PM 35.4764 -105.9733 333° Northwest 349 402 14,100 -2,460 Descending Albuquerque Center
04:07PM 35.5564 -106.0289 331° Northwest 333 383 11,900 -1,440 Descending Albuquerque Center
04:08PM 35.6250 -106.1003 320° Northwest 323 372 11,200 -1,440 Descending Albuquerque Center
04:09PM 35.6861 -106.1667 319° Northwest 282 325 8,900 -1,260 Descending Albuquerque Center
04:10PM 35.6969 -106.1097 77° East 220 253 8,600 -300 Descending Albuquerque Center